sensor_id;sensor_type;location;lat;lon;timestamp;pressure;altitude;pressure_sealevel;temperature;humidity
27805;BME280;15183;51.350;11.102;2023-03-04T00:02:17;100565.78;;;7.54;56.14
27805;BME280;15183;51.350;11.102;2023-03-04T00:04:44;100631.78;;;7.97;56.22
27805;BME280;15183;51.350;11.102;2023-03-04T00:07:10;100609.34;;;7.87;55.85
27805;BME280;15183;51.350;11.102;2023-03-04T00:09:43;100607.50;;;7.87;55.94
27805;BME280;15183;51.350;11.102;2023-03-04T00:12:10;100632.66;;;8.05;56.14
27805;BME280;15183;51.350;11.102;2023-03-04T00:14:36;100625.69;;;7.97;56.12
27805;BME280;15183;51.350;11.102;2023-03-04T00:17:03;100584.91;;;7.78;56.16
27805;BME280;15183;51.350;11.102;2023-03-04T00:19:30;100608.22;;;7.96;56.34
27805;BME280;15183;51.350;11.102;2023-03-04T00:21:56;100610.69;;;7.97;55.89
27805;BME280;15183;51.350;11.102;2023-03-04T00:24:23;100571.66;;;7.71;56.26
27805;BME280;15183;51.350;11.102;2023-03-04T00:26:50;100537.94;;;7.45;56.10
27805;BME280;15183;51.350;11.102;2023-03-04T00:29:16;100618.59;;;7.97;56.34
27805;BME280;15183;51.350;11.102;2023-03-04T00:31:43;100554.88;;;7.57;56.29
27805;BME280;15183;51.350;11.102;2023-03-04T00:34:09;100574.28;;;7.71;56.00
27805;BME280;15183;51.350;11.102;2023-03-04T00:36:36;100553.53;;;7.61;56.01
27805;BME280;15183;51.350;11.102;2023-03-04T00:39:03;100603.50;;;7.91;56.47
27805;BME280;15183;51.350;11.102;2023-03-04T00:41:29;100533.47;;;7.45;56.14
27805;BME280;15183;51.350;11.102;2023-03-04T00:43:56;100565.13;;;7.67;56.27
27805;BME280;15183;51.350;11.102;2023-03-04T00:46:22;100583.44;;;7.75;56.24
27805;BME280;15183;51.350;11.102;2023-03-04T00:48:48;100611.16;;;7.86;56.55
27805;BME280;15183;51.350;11.102;2023-03-04T00:51:15;100603.44;;;7.85;56.53
27805;BME280;15183;51.350;11.102;2023-03-04T00:53:41;100589.09;;;7.72;56.64
27805;BME280;15183;51.350;11.102;2023-03-04T00:56:08;100529.75;;;7.39;56.32
27805;BME280;15183;51.350;11.102;2023-03-04T00:58:34;100592.66;;;7.79;56.20
27805;BME280;15183;51.350;11.102;2023-03-04T01:01:00;100585.75;;;7.78;56.27
27805;BME280;15183;51.350;11.102;2023-03-04T01:03:27;100576.53;;;7.74;56.79
27805;BME280;15183;51.350;11.102;2023-03-04T01:05:56;100544.03;;;7.45;56.15
27805;BME280;15183;51.350;11.102;2023-03-04T01:08:22;100538.31;;;7.42;56.78
27805;BME280;15183;51.350;11.102;2023-03-04T01:10:49;100506.66;;;7.20;56.42
27805;BME280;15183;51.350;11.102;2023-03-04T01:13:16;100554.63;;;7.52;56.71
27805;BME280;15183;51.350;11.102;2023-03-04T01:15:42;100572.66;;;7.48;56.52
27805;BME280;15183;51.350;11.102;2023-03-04T01:18:09;100570.84;;;7.34;56.64
27805;BME280;15183;51.350;11.102;2023-03-04T01:20:35;100496.00;;;6.76;56.91
27805;BME280;15183;51.350;11.102;2023-03-04T01:23:02;100477.16;;;6.58;56.91
27805;BME280;15183;51.350;11.102;2023-03-04T01:25:28;100521.34;;;6.77;57.03
27805;BME280;15183;51.350;11.102;2023-03-04T01:27:55;100528.44;;;6.62;57.05
27805;BME280;15183;51.350;11.102;2023-03-04T01:30:21;100547.50;;;6.64;56.81
27805;BME280;15183;51.350;11.102;2023-03-04T01:32:47;100543.34;;;6.55;57.62
27805;BME280;15183;51.350;11.102;2023-03-04T01:35:14;100531.53;;;6.35;57.53
27805;BME280;15183;51.350;11.102;2023-03-04T01:37:40;100517.44;;;6.13;57.42
27805;BME280;15183;51.350;11.102;2023-03-04T01:40:08;100526.50;;;6.11;57.97
27805;BME280;15183;51.350;11.102;2023-03-04T01:42:35;100522.00;;;5.96;57.90
27805;BME280;15183;51.350;11.102;2023-03-04T01:45:02;100530.88;;;5.95;58.26
27805;BME280;15183;51.350;11.102;2023-03-04T01:47:30;100541.22;;;5.97;58.13
27805;BME280;15183;51.350;11.102;2023-03-04T01:49:58;100522.72;;;5.90;58.34
27805;BME280;15183;51.350;11.102;2023-03-04T01:52:26;100512.22;;;5.82;58.53
27805;BME280;15183;51.350;11.102;2023-03-04T01:54:53;100495.09;;;5.71;58.01
27805;BME280;15183;51.350;11.102;2023-03-04T01:57:24;100503.63;;;5.73;58.23
27805;BME280;15183;51.350;11.102;2023-03-04T02:00:32;100502.97;;;5.71;58.24
27805;BME280;15183;51.350;11.102;2023-03-04T02:03:05;100448.13;;;5.21;58.35
27805;BME280;15183;51.350;11.102;2023-03-04T02:05:37;100502.66;;;5.65;58.53
27805;BME280;15183;51.350;11.102;2023-03-04T02:08:05;100487.16;;;5.56;58.17
27805;BME280;15183;51.350;11.102;2023-03-04T02:10:33;100474.72;;;5.49;58.17
27805;BME280;15183;51.350;11.102;2023-03-04T02:13:00;100491.88;;;5.60;58.77
27805;BME280;15183;51.350;11.102;2023-03-04T02:15:28;100488.94;;;5.55;58.28
27805;BME280;15183;51.350;11.102;2023-03-04T02:17:55;100475.41;;;5.43;58.62
27805;BME280;15183;51.350;11.102;2023-03-04T02:20:44;100492.56;;;5.54;58.44
27805;BME280;15183;51.350;11.102;2023-03-04T02:23:42;100499.88;;;5.44;58.22
27805;BME280;15183;51.350;11.102;2023-03-04T02:26:24;100476.38;;;5.19;58.40
27805;BME280;15183;51.350;11.102;2023-03-04T02:28:53;100444.34;;;5.00;58.54
27805;BME280;15183;51.350;11.102;2023-03-04T02:33:55;100491.28;;;5.27;58.67
27805;BME280;15183;51.350;11.102;2023-03-04T02:36:22;100488.47;;;5.28;58.83
27805;BME280;15183;51.350;11.102;2023-03-04T02:38:51;100410.81;;;4.79;59.03
27805;BME280;15183;51.350;11.102;2023-03-04T02:41:23;100491.94;;;5.29;58.69
27805;BME280;15183;51.350;11.102;2023-03-04T02:43:53;100456.47;;;5.01;58.72
27805;BME280;15183;51.350;11.102;2023-03-04T02:46:20;100467.63;;;5.03;58.82
27805;BME280;15183;51.350;11.102;2023-03-04T02:48:47;100494.97;;;5.17;58.92
27805;BME280;15183;51.350;11.102;2023-03-04T02:51:13;100480.56;;;5.05;59.18
27805;BME280;15183;51.350;11.102;2023-03-04T02:53:40;100443.66;;;4.75;59.11
27805;BME280;15183;51.350;11.102;2023-03-04T02:56:06;100478.13;;;5.03;59.31
27805;BME280;15183;51.350;11.102;2023-03-04T02:58:33;100420.59;;;4.62;59.50
27805;BME280;15183;51.350;11.102;2023-03-04T03:00:59;100487.81;;;5.03;59.21
27805;BME280;15183;51.350;11.102;2023-03-04T03:03:26;100465.56;;;4.90;59.11
27805;BME280;15183;51.350;11.102;2023-03-04T03:05:53;100439.69;;;4.79;59.00
27805;BME280;15183;51.350;11.102;2023-03-04T03:08:19;100464.69;;;4.98;59.07
27805;BME280;15183;51.350;11.102;2023-03-04T03:10:46;100450.59;;;4.91;59.33
27805;BME280;15183;51.350;11.102;2023-03-04T03:13:12;100447.03;;;4.84;59.41
27805;BME280;15183;51.350;11.102;2023-03-04T03:15:39;100425.28;;;4.75;59.10
27805;BME280;15183;51.350;11.102;2023-03-04T03:18:11;100436.94;;;4.72;59.29
27805;BME280;15183;51.350;11.102;2023-03-04T03:20:37;100443.81;;;4.73;59.20
27805;BME280;15183;51.350;11.102;2023-03-04T03:23:04;100427.78;;;4.68;59.39
27805;BME280;15183;51.350;11.102;2023-03-04T03:25:30;100443.44;;;4.85;59.61
27805;BME280;15183;51.350;11.102;2023-03-04T03:27:57;100434.25;;;4.81;59.46
27805;BME280;15183;51.350;11.102;2023-03-04T03:30:23;100420.78;;;4.84;59.64
27805;BME280;15183;51.350;11.102;2023-03-04T03:32:50;100377.59;;;4.63;59.82
27805;BME280;15183;51.350;11.102;2023-03-04T03:35:16;100361.44;;;4.51;59.62
27805;BME280;15183;51.350;11.102;2023-03-04T03:37:43;100405.16;;;4.90;59.91
27805;BME280;15183;51.350;11.102;2023-03-04T03:40:10;100427.81;;;5.15;59.82
27805;BME280;15183;51.350;11.102;2023-03-04T03:42:37;100416.53;;;5.06;60.03
27805;BME280;15183;51.350;11.102;2023-03-04T03:45:04;100406.88;;;5.06;59.60
27805;BME280;15183;51.350;11.102;2023-03-04T03:47:30;100382.81;;;4.95;59.90
27805;BME280;15183;51.350;11.102;2023-03-04T03:49:56;100414.06;;;5.13;59.88
27805;BME280;15183;51.350;11.102;2023-03-04T03:52:23;100442.88;;;5.21;59.75
27805;BME280;15183;51.350;11.102;2023-03-04T03:54:49;100386.22;;;4.80;59.76
27805;BME280;15183;51.350;11.102;2023-03-04T03:57:16;100420.06;;;4.98;59.42
27805;BME280;15183;51.350;11.102;2023-03-04T03:59:42;100383.16;;;4.68;59.74
27805;BME280;15183;51.350;11.102;2023-03-04T04:02:09;100404.22;;;4.83;59.83
27805;BME280;15183;51.350;11.102;2023-03-04T04:04:35;100349.66;;;4.47;59.86
27805;BME280;15183;51.350;11.102;2023-03-04T04:07:01;100434.81;;;4.99;59.83
27805;BME280;15183;51.350;11.102;2023-03-04T04:09:28;100401.66;;;4.75;59.95
27805;BME280;15183;51.350;11.102;2023-03-04T04:11:55;100403.94;;;4.78;59.98
27805;BME280;15183;51.350;11.102;2023-03-04T04:14:21;100451.53;;;5.06;60.01
27805;BME280;15183;51.350;11.102;2023-03-04T04:16:47;100427.81;;;4.91;60.07
27805;BME280;15183;51.350;11.102;2023-03-04T04:19:18;100451.94;;;4.87;59.36
27805;BME280;15183;51.350;11.102;2023-03-04T04:21:45;100401.72;;;4.58;60.01
27805;BME280;15183;51.350;11.102;2023-03-04T04:24:12;100426.97;;;4.59;60.21
27805;BME280;15183;51.350;11.102;2023-03-04T04:26:38;100438.72;;;4.72;59.79
27805;BME280;15183;51.350;11.102;2023-03-04T04:29:05;100466.41;;;4.83;60.14
27805;BME280;15183;51.350;11.102;2023-03-04T04:31:32;100481.84;;;4.77;60.22
27805;BME280;15183;51.350;11.102;2023-03-04T04:33:59;100476.88;;;4.91;59.99
27805;BME280;15183;51.350;11.102;2023-03-04T04:36:26;100449.56;;;4.77;60.02
27805;BME280;15183;51.350;11.102;2023-03-04T04:38:52;100451.00;;;4.80;60.06
27805;BME280;15183;51.350;11.102;2023-03-04T04:41:26;100484.47;;;5.09;60.28
27805;BME280;15183;51.350;11.102;2023-03-04T04:43:53;100477.38;;;5.18;59.76
27805;BME280;15183;51.350;11.102;2023-03-04T04:46:22;100470.97;;;5.20;60.02
27805;BME280;15183;51.350;11.102;2023-03-04T04:48:48;100474.66;;;5.34;60.17
27805;BME280;15183;51.350;11.102;2023-03-04T04:51:15;100464.25;;;5.41;59.69
27805;BME280;15183;51.350;11.102;2023-03-04T04:53:41;100468.50;;;5.65;59.84
27805;BME280;15183;51.350;11.102;2023-03-04T04:56:26;100447.78;;;5.71;59.92
27805;BME280;15183;51.350;11.102;2023-03-04T04:58:56;100445.16;;;5.86;59.21
27805;BME280;15183;51.350;11.102;2023-03-04T05:01:23;100422.41;;;5.93;59.27
27805;BME280;15183;51.350;11.102;2023-03-04T05:03:51;100423.78;;;6.19;58.85
27805;BME280;15183;51.350;11.102;2023-03-04T05:06:19;100470.44;;;6.55;59.14
27805;BME280;15183;51.350;11.102;2023-03-04T05:08:47;100448.00;;;6.59;58.73
27805;BME280;15183;51.350;11.102;2023-03-04T05:11:14;100394.84;;;6.34;58.55
27805;BME280;15183;51.350;11.102;2023-03-04T05:13:40;100461.50;;;6.86;58.98
27805;BME280;15183;51.350;11.102;2023-03-04T05:16:08;100455.22;;;6.87;58.69
27805;BME280;15183;51.350;11.102;2023-03-04T05:18:34;100444.50;;;6.89;58.58
27805;BME280;15183;51.350;11.102;2023-03-04T05:21:02;100469.06;;;7.11;58.62
27805;BME280;15183;51.350;11.102;2023-03-04T05:23:32;100450.00;;;7.09;58.95
27805;BME280;15183;51.350;11.102;2023-03-04T05:26:00;100466.56;;;7.24;58.85
27805;BME280;15183;51.350;11.102;2023-03-04T05:28:26;100476.78;;;7.34;58.03
27805;BME280;15183;51.350;11.102;2023-03-04T05:30:53;100457.34;;;7.35;58.19
27805;BME280;15183;51.350;11.102;2023-03-04T05:33:20;100458.22;;;7.43;58.30
27805;BME280;15183;51.350;11.102;2023-03-04T05:35:48;100444.22;;;7.42;58.08
27805;BME280;15183;51.350;11.102;2023-03-04T05:38:18;100457.50;;;7.56;57.96
27805;BME280;15183;51.350;11.102;2023-03-04T05:40:46;100456.50;;;7.57;58.13
27805;BME280;15183;51.350;11.102;2023-03-04T05:43:13;100400.34;;;7.34;57.99
27805;BME280;15183;51.350;11.102;2023-03-04T05:45:39;100445.03;;;7.64;57.86
27805;BME280;15183;51.350;11.102;2023-03-04T05:48:07;100359.19;;;7.12;57.43
27805;BME280;15183;51.350;11.102;2023-03-04T05:50:34;100416.41;;;7.61;57.61
27805;BME280;15183;51.350;11.102;2023-03-04T05:53:00;100417.97;;;7.56;57.77
27805;BME280;15183;51.350;11.102;2023-03-04T05:55:27;100429.00;;;7.66;57.61
27805;BME280;15183;51.350;11.102;2023-03-04T05:57:55;100402.91;;;7.49;57.77
27805;BME280;15183;51.350;11.102;2023-03-04T06:00:22;100435.31;;;7.72;57.46
27805;BME280;15183;51.350;11.102;2023-03-04T06:02:49;100413.06;;;7.52;57.48
27805;BME280;15183;51.350;11.102;2023-03-04T06:05:16;100434.47;;;7.64;56.78
27805;BME280;15183;51.350;11.102;2023-03-04T06:07:43;100427.44;;;7.50;57.35
27805;BME280;15183;51.350;11.102;2023-03-04T06:10:12;100397.41;;;7.22;57.34
27805;BME280;15183;51.350;11.102;2023-03-04T06:12:40;100423.06;;;7.35;57.63
27805;BME280;15183;51.350;11.102;2023-03-04T06:15:07;100446.28;;;7.47;57.52
27805;BME280;15183;51.350;11.102;2023-03-04T06:17:37;100417.09;;;7.27;57.60
27805;BME280;15183;51.350;11.102;2023-03-04T06:20:04;100384.50;;;7.06;57.59
27805;BME280;15183;51.350;11.102;2023-03-04T06:22:34;100390.50;;;7.21;57.55
27805;BME280;15183;51.350;11.102;2023-03-04T06:25:00;100441.06;;;7.53;57.61
27805;BME280;15183;51.350;11.102;2023-03-04T06:27:27;100392.97;;;7.23;57.57
27805;BME280;15183;51.350;11.102;2023-03-04T06:29:53;100450.78;;;7.75;57.67
27805;BME280;15183;51.350;11.102;2023-03-04T06:32:20;100429.81;;;7.66;57.43
27805;BME280;15183;51.350;11.102;2023-03-04T06:34:46;100431.69;;;7.73;57.25
27805;BME280;15183;51.350;11.102;2023-03-04T06:37:13;100467.94;;;7.92;57.40
27805;BME280;15183;51.350;11.102;2023-03-04T06:39:39;100452.38;;;7.97;57.46
27805;BME280;15183;51.350;11.102;2023-03-04T06:42:05;100459.13;;;8.07;57.48
27805;BME280;15183;51.350;11.102;2023-03-04T06:44:35;100462.22;;;8.17;57.21
27805;BME280;15183;51.350;11.102;2023-03-04T06:47:01;100424.97;;;7.99;57.35
27805;BME280;15183;51.350;11.102;2023-03-04T06:49:28;100465.31;;;8.28;57.05
27805;BME280;15183;51.350;11.102;2023-03-04T06:51:54;100460.66;;;8.30;57.21
27805;BME280;15183;51.350;11.102;2023-03-04T06:54:21;100427.69;;;8.12;57.12
27805;BME280;15183;51.350;11.102;2023-03-04T06:56:47;100422.41;;;8.12;57.11
27805;BME280;15183;51.350;11.102;2023-03-04T06:59:15;100402.03;;;7.99;57.02
27805;BME280;15183;51.350;11.102;2023-03-04T07:01:41;100462.91;;;8.33;57.17
27805;BME280;15183;51.350;11.102;2023-03-04T07:04:07;100444.75;;;8.16;57.34
27805;BME280;15183;51.350;11.102;2023-03-04T07:06:34;100371.19;;;7.64;57.31
27805;BME280;15183;51.350;11.102;2023-03-04T07:09:00;100455.88;;;8.11;57.47
27805;BME280;15183;51.350;11.102;2023-03-04T07:11:27;100449.72;;;7.97;57.60
27805;BME280;15183;51.350;11.102;2023-03-04T07:13:53;100462.53;;;8.01;57.86
27805;BME280;15183;51.350;11.102;2023-03-04T07:16:21;100446.66;;;7.94;57.68
27805;BME280;15183;51.350;11.102;2023-03-04T07:18:49;100441.53;;;7.92;57.66
27805;BME280;15183;51.350;11.102;2023-03-04T07:21:17;100450.38;;;8.06;57.75
27805;BME280;15183;51.350;11.102;2023-03-04T07:23:44;100467.88;;;8.14;57.80
27805;BME280;15183;51.350;11.102;2023-03-04T07:26:10;100470.97;;;8.18;57.56
27805;BME280;15183;51.350;11.102;2023-03-04T07:28:37;100453.06;;;8.13;57.95
27805;BME280;15183;51.350;11.102;2023-03-04T07:31:31;100467.16;;;8.27;57.75
27805;BME280;15183;51.350;11.102;2023-03-04T07:34:06;100447.84;;;8.20;57.81
27805;BME280;15183;51.350;11.102;2023-03-04T07:36:35;100424.41;;;8.10;57.77
27805;BME280;15183;51.350;11.102;2023-03-04T07:39:03;100442.44;;;8.35;57.64
27805;BME280;15183;51.350;11.102;2023-03-04T07:41:29;100437.72;;;8.30;57.77
27805;BME280;15183;51.350;11.102;2023-03-04T07:43:57;100411.50;;;8.29;57.61
27805;BME280;15183;51.350;11.102;2023-03-04T07:46:24;100438.47;;;8.52;57.34
27805;BME280;15183;51.350;11.102;2023-03-04T07:48:51;100459.69;;;8.73;57.40
27805;BME280;15183;51.350;11.102;2023-03-04T07:51:24;100455.66;;;8.83;57.14
27805;BME280;15183;51.350;11.102;2023-03-04T07:53:55;100444.88;;;8.85;57.65
27805;BME280;15183;51.350;11.102;2023-03-04T07:56:26;100448.38;;;8.92;57.46
27805;BME280;15183;51.350;11.102;2023-03-04T07:58:52;100436.53;;;8.88;56.89
27805;BME280;15183;51.350;11.102;2023-03-04T08:01:28;100448.00;;;9.09;57.33
27805;BME280;15183;51.350;11.102;2023-03-04T08:03:56;100455.53;;;9.19;57.45
27805;BME280;15183;51.350;11.102;2023-03-04T08:06:23;100425.59;;;8.98;57.02
27805;BME280;15183;51.350;11.102;2023-03-04T08:08:56;100452.69;;;9.27;57.37
27805;BME280;15183;51.350;11.102;2023-03-04T08:11:23;100457.41;;;9.32;57.18
27805;BME280;15183;51.350;11.102;2023-03-04T08:13:50;100434.81;;;9.29;56.72
27805;BME280;15183;51.350;11.102;2023-03-04T08:16:21;100428.91;;;9.27;56.66
27805;BME280;15183;51.350;11.102;2023-03-04T08:18:58;100444.78;;;9.40;57.04
27805;BME280;15183;51.350;11.102;2023-03-04T08:21:26;100419.78;;;9.30;56.85
27805;BME280;15183;51.350;11.102;2023-03-04T08:23:54;100423.41;;;9.35;56.81
27805;BME280;15183;51.350;11.102;2023-03-04T08:26:26;100408.56;;;9.21;56.78
27805;BME280;15183;51.350;11.102;2023-03-04T08:28:55;100387.41;;;9.01;56.40
27805;BME280;15183;51.350;11.102;2023-03-04T08:31:23;100426.88;;;9.36;56.31
27805;BME280;15183;51.350;11.102;2023-03-04T08:33:49;100413.66;;;9.29;56.99
27805;BME280;15183;51.350;11.102;2023-03-04T08:36:16;100377.81;;;9.06;56.36
27805;BME280;15183;51.350;11.102;2023-03-04T08:38:42;100397.19;;;9.27;56.74
27805;BME280;15183;51.350;11.102;2023-03-04T08:41:11;100410.81;;;9.37;56.76
27805;BME280;15183;51.350;11.102;2023-03-04T08:43:38;100392.28;;;9.37;56.39
27805;BME280;15183;51.350;11.102;2023-03-04T08:46:04;100389.66;;;9.37;56.45
27805;BME280;15183;51.350;11.102;2023-03-04T08:48:31;100428.72;;;9.62;56.39
27805;BME280;15183;51.350;11.102;2023-03-04T08:50:58;100441.31;;;9.74;56.34
27805;BME280;15183;51.350;11.102;2023-03-04T08:53:26;100429.09;;;9.66;56.39
27805;BME280;15183;51.350;11.102;2023-03-04T08:55:52;100433.41;;;9.67;56.44
27805;BME280;15183;51.350;11.102;2023-03-04T08:58:19;100417.91;;;9.64;56.45
27805;BME280;15183;51.350;11.102;2023-03-04T09:00:47;100438.44;;;9.82;56.21
27805;BME280;15183;51.350;11.102;2023-03-04T09:03:15;100401.66;;;9.60;56.07
27805;BME280;15183;51.350;11.102;2023-03-04T09:05:45;100410.59;;;9.66;56.06
27805;BME280;15183;51.350;11.102;2023-03-04T09:08:14;100370.72;;;9.40;55.95
27805;BME280;15183;51.350;11.102;2023-03-04T09:10:40;100437.44;;;9.83;56.33
27805;BME280;15183;51.350;11.102;2023-03-04T09:13:07;100346.75;;;9.29;56.12
27805;BME280;15183;51.350;11.102;2023-03-04T09:15:37;100392.28;;;9.64;56.02
27805;BME280;15183;51.350;11.102;2023-03-04T09:18:09;100394.53;;;9.74;56.29
27805;BME280;15183;51.350;11.102;2023-03-04T09:20:35;100420.53;;;9.91;56.06
27805;BME280;15183;51.350;11.102;2023-03-04T09:23:01;100427.22;;;10.00;55.90
27805;BME280;15183;51.350;11.102;2023-03-04T09:25:28;100398.94;;;9.94;56.08
27805;BME280;15183;51.350;11.102;2023-03-04T09:27:55;100415.19;;;10.11;56.28
27805;BME280;15183;51.350;11.102;2023-03-04T09:30:21;100401.97;;;10.11;55.75
27805;BME280;15183;51.350;11.102;2023-03-04T09:32:47;100413.38;;;10.11;55.95
27805;BME280;15183;51.350;11.102;2023-03-04T09:35:14;100400.34;;;10.10;55.71
27805;BME280;15183;51.350;11.102;2023-03-04T09:37:40;100421.88;;;10.27;55.83
27805;BME280;15183;51.350;11.102;2023-03-04T09:40:08;100401.53;;;10.14;55.55
27805;BME280;15183;51.350;11.102;2023-03-04T09:42:49;100421.28;;;10.25;55.78
27805;BME280;15183;51.350;11.102;2023-03-04T09:45:22;100402.56;;;10.20;55.81
27805;BME280;15183;51.350;11.102;2023-03-04T09:47:52;100397.06;;;10.14;55.95
27805;BME280;15183;51.350;11.102;2023-03-04T09:50:20;100414.09;;;10.39;55.36
27805;BME280;15183;51.350;11.102;2023-03-04T09:53:33;100408.22;;;10.44;55.35
27805;BME280;15183;51.350;11.102;2023-03-04T09:55:51;100382.59;;;10.17;55.23
27805;BME280;15183;51.350;11.102;2023-03-04T09:58:48;100413.88;;;10.47;55.79
27805;BME280;15183;51.350;11.102;2023-03-04T10:01:39;100391.50;;;10.43;55.63
27805;BME280;15183;51.350;11.102;2023-03-04T10:04:46;100390.81;;;10.54;55.36
27805;BME280;15183;51.350;11.102;2023-03-04T10:07:23;100398.16;;;10.52;55.10
27805;BME280;15183;51.350;11.102;2023-03-04T10:10:06;100403.63;;;10.64;55.17
27805;BME280;15183;51.350;11.102;2023-03-04T10:12:38;100377.97;;;10.58;55.11
27805;BME280;15183;51.350;11.102;2023-03-04T10:15:41;100371.91;;;10.51;54.97
27805;BME280;15183;51.350;11.102;2023-03-04T10:18:29;100395.41;;;10.73;55.04
27805;BME280;15183;51.350;11.102;2023-03-04T10:21:19;100395.22;;;10.74;54.74
27805;BME280;15183;51.350;11.102;2023-03-04T10:23:48;100320.81;;;10.30;55.09
27805;BME280;15183;51.350;11.102;2023-03-04T10:26:17;100292.19;;;10.13;54.83
27805;BME280;15183;51.350;11.102;2023-03-04T10:28:46;100302.69;;;10.27;55.25
27805;BME280;15183;51.350;11.102;2023-03-04T10:31:33;100357.34;;;10.67;54.77
27805;BME280;15183;51.350;11.102;2023-03-04T10:34:03;100339.88;;;10.52;54.76
27805;BME280;15183;51.350;11.102;2023-03-04T10:39:07;100368.19;;;10.91;54.59
27805;BME280;15183;51.350;11.102;2023-03-04T10:41:34;100352.94;;;10.86;54.70
27805;BME280;15183;51.350;11.102;2023-03-04T10:46:42;100358.28;;;11.11;54.57
27805;BME280;15183;51.350;11.102;2023-03-04T10:49:15;100373.47;;;11.23;54.61
27805;BME280;15183;51.350;11.102;2023-03-04T10:52:12;100354.78;;;11.11;54.21
27805;BME280;15183;51.350;11.102;2023-03-04T10:54:50;100378.78;;;11.23;54.29
27805;BME280;15183;51.350;11.102;2023-03-04T10:57:38;100370.97;;;11.28;54.15
27805;BME280;15183;51.350;11.102;2023-03-04T11:02:46;100383.81;;;11.31;54.51
27805;BME280;15183;51.350;11.102;2023-03-04T11:05:25;100345.13;;;11.23;53.87
27805;BME280;15183;51.350;11.102;2023-03-04T11:07:57;100354.28;;;11.27;53.70
27805;BME280;15183;51.350;11.102;2023-03-04T11:10:26;100370.06;;;11.41;53.91
27805;BME280;15183;51.350;11.102;2023-03-04T11:13:20;100374.34;;;11.42;53.69
27805;BME280;15183;51.350;11.102;2023-03-04T11:16:04;100271.84;;;10.78;53.54
27805;BME280;15183;51.350;11.102;2023-03-04T11:18:54;100367.78;;;11.44;53.86
27805;BME280;15183;51.350;11.102;2023-03-04T11:21:28;100362.03;;;11.48;54.01
27805;BME280;15183;51.350;11.102;2023-03-04T11:24:05;100360.44;;;11.47;53.46
27805;BME280;15183;51.350;11.102;2023-03-04T11:26:45;100359.41;;;11.48;53.67
27805;BME280;15183;51.350;11.102;2023-03-04T11:29:51;100355.31;;;11.45;53.56
27805;BME280;15183;51.350;11.102;2023-03-04T11:32:36;100345.38;;;11.40;53.70
27805;BME280;15183;51.350;11.102;2023-03-04T11:35:37;100342.72;;;11.40;53.36
27805;BME280;15183;51.350;11.102;2023-03-04T11:38:32;100351.44;;;11.48;53.35
27805;BME280;15183;51.350;11.102;2023-03-04T11:41:10;100339.41;;;11.45;53.63
27805;BME280;15183;51.350;11.102;2023-03-04T11:43:41;100355.81;;;11.61;53.71
27805;BME280;15183;51.350;11.102;2023-03-04T11:55:17;100326.38;;;11.62;53.64
27805;BME280;15183;51.350;11.102;2023-03-04T12:01:04;100331.72;;;11.81;53.61
27805;BME280;15183;51.350;11.102;2023-03-04T12:12:26;100316.88;;;11.73;53.04
27805;BME280;15183;51.350;11.102;2023-03-04T12:15:20;100325.06;;;11.71;53.24
27805;BME280;15183;51.350;11.102;2023-03-04T12:21:00;100252.22;;;11.30;53.10
27805;BME280;15183;51.350;11.102;2023-03-04T12:26:42;100304.84;;;11.70;52.86
27805;BME280;15183;51.350;11.102;2023-03-04T12:33:10;100298.75;;;11.70;53.28
27805;BME280;15183;51.350;11.102;2023-03-04T12:35:52;100303.75;;;11.78;53.04
27805;BME280;15183;51.350;11.102;2023-03-04T12:41:51;100303.03;;;11.71;52.21
27805;BME280;15183;51.350;11.102;2023-03-04T12:44:23;100263.06;;;11.47;52.30
27805;BME280;15183;51.350;11.102;2023-03-04T12:50:40;100291.44;;;11.65;52.29
27805;BME280;15183;51.350;11.102;2023-03-04T12:56:02;100290.56;;;11.53;52.06
27805;BME280;15183;51.350;11.102;2023-03-04T12:58:32;100295.41;;;11.56;51.49
27805;BME280;15183;51.350;11.102;2023-03-04T13:01:17;100286.72;;;11.49;50.22
27805;BME280;15183;51.350;11.102;2023-03-04T13:07:12;100282.56;;;11.34;50.49
27805;BME280;15183;51.350;11.102;2023-03-04T13:09:56;100283.88;;;11.25;50.06
27805;BME280;15183;51.350;11.102;2023-03-04T13:12:24;100264.78;;;11.16;50.60
27805;BME280;15183;51.350;11.102;2023-03-04T13:17:54;100265.84;;;11.34;50.77
27805;BME280;15183;51.350;11.102;2023-03-04T13:28:30;100260.19;;;11.49;51.09
27805;BME280;15183;51.350;11.102;2023-03-04T13:35:59;100253.91;;;11.43;51.03
27805;BME280;15183;51.350;11.102;2023-03-04T13:41:12;100275.13;;;11.43;51.67
27805;BME280;15183;51.350;11.102;2023-03-04T13:43:44;100273.75;;;11.40;51.69
27805;BME280;15183;51.350;11.102;2023-03-04T13:49:02;100237.38;;;11.04;52.01
27805;BME280;15183;51.350;11.102;2023-03-04T13:51:35;100237.91;;;11.12;51.80
27805;BME280;15183;51.350;11.102;2023-03-04T13:54:29;100270.03;;;11.23;52.13
27805;BME280;15183;51.350;11.102;2023-03-04T13:59:53;100269.34;;;11.09;52.18
27805;BME280;15183;51.350;11.102;2023-03-04T14:02:23;100264.72;;;11.04;52.78
27805;BME280;15183;51.350;11.102;2023-03-04T14:04:58;100241.94;;;10.96;52.69
27805;BME280;15183;51.350;11.102;2023-03-04T14:07:35;100245.75;;;11.00;52.69
27805;BME280;15183;51.350;11.102;2023-03-04T14:12:44;100224.25;;;10.90;52.46
27805;BME280;15183;51.350;11.102;2023-03-04T14:15:29;100237.81;;;11.00;53.05
27805;BME280;15183;51.350;11.102;2023-03-04T14:18:01;100241.69;;;10.98;53.01
27805;BME280;15183;51.350;11.102;2023-03-04T14:20:37;100260.00;;;11.06;53.14
27805;BME280;15183;51.350;11.102;2023-03-04T14:26:17;100223.66;;;11.07;53.10
27805;BME280;15183;51.350;11.102;2023-03-04T14:28:49;100234.66;;;11.10;53.28
27805;BME280;15183;51.350;11.102;2023-03-04T14:31:21;100231.88;;;11.05;53.37